createdAt,value
2018-01-22T00:00:59.863Z,1.04
2018-01-22T00:01:59.776Z,1.10
2018-01-22T00:02:59.702Z,1.05
2018-01-22T00:03:59.605Z,1.04
2018-01-22T00:04:59.517Z,0.98
2018-01-22T00:05:59.428Z,0.99
2018-01-22T00:06:59.341Z,1.13
2018-01-22T00:07:59.252Z,1.01
2018-01-22T00:08:59.168Z,1.02
2018-01-22T00:09:59.081Z,1.05
2018-01-22T00:10:58.990Z,1.08
2018-01-22T00:11:58.905Z,0.95
2018-01-22T00:12:58.819Z,0.96
2018-01-22T00:13:58.730Z,0.98
2018-01-22T00:14:58.646Z,0.95
2018-01-22T00:15:58.556Z,0.84
2018-01-22T00:16:58.476Z,0.95
2018-01-22T00:17:58.680Z,0.80
2018-01-22T00:18:58.295Z,0.77
2018-01-22T00:19:58.207Z,0.74
2018-01-22T00:20:58.120Z,0.81
2018-01-22T00:21:58.030Z,0.76
2018-01-22T00:22:57.946Z,0.80
2018-01-22T00:23:57.857Z,0.80
2018-01-22T00:24:57.773Z,0.80
2018-01-22T00:25:57.682Z,0.87
2018-01-22T00:26:57.596Z,0.80
2018-01-22T00:27:57.507Z,0.86
2018-01-22T00:28:57.428Z,0.83
2018-01-22T00:29:57.335Z,0.68
2018-01-22T00:30:57.247Z,0.80
2018-01-22T00:31:57.158Z,0.69
2018-01-22T00:32:57.075Z,0.60
2018-01-22T00:33:56.986Z,0.66
2018-01-22T00:34:56.898Z,0.70
2018-01-22T00:35:56.809Z,0.69
2018-01-22T00:36:56.723Z,0.68
2018-01-22T00:37:56.644Z,0.66
2018-01-22T00:38:56.552Z,0.65
2018-01-22T00:39:56.465Z,0.77
2018-01-22T00:40:56.379Z,0.76
2018-01-22T00:41:56.287Z,0.66
2018-01-22T00:42:56.200Z,0.66
2018-01-22T00:43:56.114Z,0.66
2018-01-22T00:44:56.027Z,0.69
2018-01-22T00:45:55.939Z,0.66
2018-01-22T00:46:55.852Z,0.70
2018-01-22T00:47:55.764Z,0.65
2018-01-22T00:48:55.677Z,0.68
2018-01-22T00:49:55.589Z,0.70
2018-01-22T00:50:55.498Z,0.66
2018-01-22T00:51:55.424Z,0.73
2018-01-22T00:52:55.325Z,0.69
2018-01-22T00:53:55.242Z,0.63
2018-01-22T00:54:55.151Z,0.68
2018-01-22T00:55:55.064Z,0.77
2018-01-22T00:56:54.977Z,0.69
2018-01-22T00:57:54.887Z,0.81
2018-01-22T00:58:54.799Z,0.78
2018-01-22T00:59:54.712Z,0.81
2018-01-22T01:00:54.626Z,0.86
2018-01-22T01:01:54.538Z,0.77
2018-01-22T01:02:54.452Z,0.66
2018-01-22T01:03:54.364Z,0.66
2018-01-22T01:04:54.278Z,0.66
2018-01-22T01:05:54.193Z,0.80
2018-01-22T01:06:54.115Z,0.81
2018-01-22T01:07:54.013Z,0.78
2018-01-22T01:08:53.927Z,0.80
2018-01-22T01:09:53.838Z,0.86
2018-01-22T01:10:53.750Z,0.86
2018-01-22T01:11:53.664Z,0.86
2018-01-22T01:12:53.580Z,0.78
2018-01-22T01:13:53.490Z,0.80
2018-01-22T01:14:53.402Z,0.86
2018-01-22T01:15:53.315Z,0.83
2018-01-22T01:16:53.228Z,0.86
2018-01-22T01:17:53.141Z,0.80
2018-01-22T01:18:53.059Z,0.86
2018-01-22T01:19:52.971Z,0.87
2018-01-22T01:20:52.877Z,0.86
2018-01-22T01:21:52.790Z,0.86
2018-01-22T01:22:52.704Z,0.83
2018-01-22T01:23:52.619Z,0.78
2018-01-22T01:24:52.529Z,0.81
2018-01-22T01:25:52.440Z,0.95
2018-01-22T01:26:52.355Z,0.94
2018-01-22T01:27:52.268Z,0.92
2018-01-22T01:28:52.179Z,1.02
2018-01-22T01:29:52.091Z,1.02
2018-01-22T01:30:52.006Z,0.96
2018-01-22T01:31:51.920Z,0.99
2018-01-22T01:32:51.831Z,1.02
2018-01-22T01:33:51.743Z,1.02
2018-01-22T01:34:51.656Z,0.95
2018-01-22T01:35:51.568Z,1.01
2018-01-22T01:36:51.493Z,1.01
2018-01-22T01:37:51.391Z,1.08
2018-01-22T01:38:51.307Z,1.05
2018-01-22T01:39:51.218Z,1.04
2018-01-22T01:40:51.132Z,1.01
2018-01-22T01:41:51.050Z,1.02
2018-01-22T01:42:50.961Z,1.04
2018-01-22T01:43:50.875Z,1.05
2018-01-22T01:44:50.783Z,1.06
2018-01-22T01:45:50.695Z,1.08
2018-01-22T01:46:50.607Z,1.05
2018-01-22T01:47:50.522Z,1.02
2018-01-22T01:48:50.434Z,0.98
2018-01-22T01:49:50.346Z,1.06
2018-01-22T01:50:50.263Z,0.96
2018-01-22T01:51:50.169Z,0.99
2018-01-22T01:52:50.086Z,1.05
2018-01-22T01:53:50.015Z,0.99
2018-01-22T01:54:49.914Z,0.98
2018-01-22T01:55:49.823Z,0.98
2018-01-22T01:56:49.737Z,1.02
2018-01-22T01:57:49.648Z,1.10
2018-01-22T01:58:49.561Z,1.05
2018-01-22T01:59:49.473Z,0.98
2018-01-22T02:00:49.388Z,1.02
2018-01-22T02:01:49.299Z,1.10
2018-01-22T02:02:49.211Z,1.06
2018-01-22T02:03:49.123Z,0.99
2018-01-22T02:04:49.041Z,1.06
2018-01-22T02:05:48.971Z,1.10
2018-01-22T02:06:48.870Z,1.10
2018-01-22T02:07:48.776Z,1.12
2018-01-22T02:08:48.692Z,1.10
2018-01-22T02:09:48.600Z,1.12
2018-01-22T02:10:48.513Z,1.08
2018-01-22T02:11:48.430Z,1.14
2018-01-22T02:12:48.339Z,1.12
2018-01-22T02:13:48.270Z,1.12
2018-01-22T02:14:48.169Z,1.16
2018-01-22T02:15:48.083Z,1.17
2018-01-22T02:16:47.991Z,1.08
2018-01-22T02:17:47.902Z,1.05
2018-01-22T02:18:47.819Z,1.05
2018-01-22T02:19:47.730Z,1.10
2018-01-22T02:20:47.649Z,1.06
2018-01-22T02:21:47.554Z,1.12
2018-01-22T02:22:47.465Z,1.10
2018-01-22T02:23:47.381Z,1.10
2018-01-22T02:24:47.292Z,1.16
2018-01-22T02:25:47.268Z,1.01
2018-01-22T02:26:47.119Z,1.05
2018-01-22T02:27:47.033Z,1.05
2018-01-22T02:28:46.944Z,1.06
2018-01-22T02:29:46.854Z,1.13
2018-01-22T02:30:46.767Z,1.10
2018-01-22T02:31:46.683Z,1.05
2018-01-22T02:32:46.595Z,1.10
2018-01-22T02:33:46.511Z,1.12
2018-01-22T02:34:46.419Z,1.06
2018-01-22T02:35:46.332Z,1.10
2018-01-22T02:36:46.247Z,1.10
2018-01-22T02:37:46.157Z,1.04
2018-01-22T02:38:46.071Z,1.01
2018-01-22T02:39:45.983Z,1.05
2018-01-22T02:40:45.901Z,1.06
2018-01-22T02:41:45.808Z,1.08
2018-01-22T02:42:45.721Z,1.17
2018-01-22T02:43:45.635Z,1.10
2018-01-22T02:44:45.547Z,1.10
2018-01-22T02:45:45.460Z,1.16
2018-01-22T02:46:45.377Z,1.16
2018-01-22T02:47:45.284Z,1.10
2018-01-22T02:48:45.197Z,1.17
2018-01-22T02:49:45.110Z,1.10
2018-01-22T02:50:45.025Z,1.12
2018-01-22T02:51:44.935Z,1.16
2018-01-22T02:52:44.851Z,1.12
2018-01-22T02:53:44.760Z,1.16
2018-01-22T02:54:44.676Z,1.13
2018-01-22T02:55:44.597Z,1.14
2018-01-22T02:56:44.515Z,1.14
2018-01-22T02:57:44.414Z,1.08
2018-01-22T02:58:44.326Z,1.10
2018-01-22T02:59:44.237Z,1.13
2018-01-22T03:00:44.152Z,1.13
2018-01-22T03:01:44.064Z,1.06
2018-01-22T03:02:43.976Z,1.13
2018-01-22T03:03:43.891Z,1.13
2018-01-22T03:04:43.806Z,1.12
2018-01-22T03:05:43.721Z,1.12
2018-01-22T03:06:43.627Z,1.10
2018-01-22T03:07:43.551Z,1.08
2018-01-22T03:08:43.454Z,1.13
2018-01-22T03:09:43.366Z,1.22
2018-01-22T03:10:43.278Z,1.22
2018-01-22T03:11:43.193Z,1.13
2018-01-22T03:12:43.106Z,1.19
2018-01-22T03:13:43.016Z,1.19
2018-01-22T03:14:42.931Z,1.19
2018-01-22T03:15:42.844Z,1.24
2018-01-22T03:16:42.759Z,1.20
2018-01-22T03:17:42.671Z,1.23
2018-01-22T03:18:42.581Z,1.24
2018-01-22T03:19:42.495Z,1.26
2018-01-22T03:20:42.411Z,1.26
2018-01-22T03:21:42.320Z,1.31
2018-01-22T03:22:42.234Z,1.19
2018-01-22T03:23:42.151Z,1.26
2018-01-22T03:24:42.058Z,1.20
2018-01-22T03:25:41.972Z,1.12
2018-01-22T03:26:41.886Z,1.08
2018-01-22T03:27:41.797Z,1.10
2018-01-22T03:28:41.712Z,1.08
2018-01-22T03:29:41.628Z,1.10
2018-01-22T03:30:41.536Z,1.13
2018-01-22T03:31:41.451Z,1.13
2018-01-22T03:32:41.382Z,1.12
2018-01-22T03:33:41.274Z,1.08
2018-01-22T03:34:41.187Z,1.10
2018-01-22T03:35:41.100Z,1.08
2018-01-22T03:36:41.013Z,1.14
2018-01-22T03:37:40.925Z,1.17
2018-01-22T03:38:40.839Z,1.12
2018-01-22T03:39:40.751Z,1.10
2018-01-22T03:40:40.665Z,1.14
2018-01-22T03:41:40.578Z,1.12
2018-01-22T03:42:40.500Z,1.14
2018-01-22T03:43:40.402Z,1.14
2018-01-22T03:44:40.316Z,1.12
2018-01-22T03:45:40.249Z,1.13
2018-01-22T03:46:40.139Z,1.13
2018-01-22T03:47:40.057Z,1.19
2018-01-22T03:48:39.968Z,1.17
2018-01-22T03:49:39.882Z,1.24
2018-01-22T03:50:39.796Z,1.30
2018-01-22T03:51:39.704Z,1.23
2018-01-22T03:52:39.619Z,1.31
2018-01-22T03:53:39.536Z,1.34
2018-01-22T03:54:39.442Z,1.32
2018-01-22T03:55:39.384Z,1.32
2018-01-22T03:56:39.289Z,1.38
2018-01-22T03:57:39.181Z,1.23
2018-01-22T03:58:39.098Z,1.30
2018-01-22T03:59:39.014Z,1.26
2018-01-22T04:00:38.924Z,1.28
2018-01-22T04:01:38.832Z,1.24
2018-01-22T04:02:38.747Z,1.24
2018-01-22T04:03:38.660Z,1.26
2018-01-22T04:04:38.572Z,1.31
2018-01-22T04:05:38.484Z,1.34
2018-01-22T04:06:38.400Z,1.31
2018-01-22T04:07:38.317Z,1.32
2018-01-22T04:08:38.228Z,1.40
2018-01-22T04:09:38.144Z,1.37
2018-01-22T04:10:38.050Z,1.32
2018-01-22T04:11:37.970Z,1.35
2018-01-22T04:12:37.875Z,1.30
2018-01-22T04:13:37.788Z,1.31
2018-01-22T04:14:37.703Z,1.30
2018-01-22T04:15:37.623Z,1.26
2018-01-22T04:16:37.525Z,1.22
2018-01-22T04:17:37.443Z,1.16
2018-01-22T04:18:37.357Z,1.14
2018-01-22T04:19:37.265Z,1.13
2018-01-22T04:20:37.181Z,1.13
2018-01-22T04:21:37.091Z,1.13
2018-01-22T04:22:37.006Z,1.10
2018-01-22T04:23:36.919Z,1.12
2018-01-22T04:24:36.832Z,1.10
2018-01-22T04:25:36.741Z,1.10
2018-01-22T04:26:36.655Z,1.06
2018-01-22T04:27:36.567Z,1.06
2018-01-22T04:28:36.498Z,0.98
2018-01-22T04:29:36.393Z,0.98
2018-01-22T04:30:36.307Z,1.10
2018-01-22T04:31:36.221Z,0.98
2018-01-22T04:32:36.135Z,0.98
2018-01-22T04:33:36.045Z,0.95
2018-01-22T04:34:35.972Z,1.01
2018-01-22T04:35:35.871Z,1.04
2018-01-22T04:36:35.782Z,1.05
2018-01-22T04:37:35.695Z,0.98
2018-01-22T04:38:35.610Z,0.96
2018-01-22T04:39:35.521Z,1.05
2018-01-22T04:40:35.433Z,1.05
2018-01-22T04:41:35.346Z,0.98
2018-01-22T04:42:35.257Z,0.99
2018-01-22T04:43:35.173Z,0.98
2018-01-22T04:44:35.090Z,0.95
2018-01-22T04:45:34.997Z,0.98
2018-01-22T04:46:34.909Z,0.94
2018-01-22T04:47:34.834Z,0.99
2018-01-22T04:48:34.734Z,0.98
2018-01-22T04:49:34.648Z,0.94
2018-01-22T04:50:34.579Z,0.94
2018-01-22T04:51:34.474Z,0.95
2018-01-22T04:52:34.390Z,0.96
2018-01-22T04:53:34.301Z,0.92
2018-01-22T04:54:34.219Z,0.81
2018-01-22T04:55:34.126Z,0.94
2018-01-22T04:56:34.042Z,0.98
2018-01-22T04:57:33.948Z,0.87
2018-01-22T04:58:33.859Z,0.92
2018-01-22T04:59:33.773Z,0.96
2018-01-22T05:00:33.686Z,0.88
2018-01-22T05:01:33.597Z,0.98
2018-01-22T05:02:33.509Z,0.92
2018-01-22T05:03:33.423Z,0.94
2018-01-22T05:04:33.338Z,0.98
2018-01-22T05:05:33.248Z,1.05
2018-01-22T05:06:33.162Z,1.12
2018-01-22T05:07:33.077Z,1.08
2018-01-22T05:08:32.988Z,1.14
2018-01-22T05:09:32.901Z,1.13
2018-01-22T05:10:32.813Z,1.12
2018-01-22T05:11:32.724Z,1.10
2018-01-22T05:12:32.648Z,1.17
2018-01-22T05:13:32.548Z,1.10
2018-01-22T05:14:32.464Z,1.12
2018-01-22T05:15:32.375Z,1.14
2018-01-22T05:16:32.286Z,1.13
2018-01-22T05:17:32.198Z,1.24
2018-01-22T05:18:32.114Z,1.16
2018-01-22T05:19:32.030Z,1.19
2018-01-22T05:20:31.940Z,1.13
2018-01-22T05:21:31.850Z,1.13
2018-01-22T05:22:31.763Z,1.12
2018-01-22T05:23:31.678Z,1.06
2018-01-22T05:24:31.590Z,1.01
2018-01-22T05:25:31.503Z,0.96
2018-01-22T05:26:31.421Z,1.02
2018-01-22T05:27:31.328Z,0.98
2018-01-22T05:28:31.241Z,0.96
2018-01-22T05:29:31.152Z,0.95
2018-01-22T05:30:31.065Z,0.88
2018-01-22T05:31:30.982Z,0.84
2018-01-22T05:32:30.896Z,0.94
2018-01-22T05:33:30.802Z,0.95
2018-01-22T05:34:30.716Z,0.92
2018-01-22T05:35:30.640Z,0.95
2018-01-22T05:36:30.542Z,0.76
2018-01-22T05:37:30.466Z,0.80
2018-01-22T05:38:30.366Z,0.91
2018-01-22T05:39:30.282Z,0.84
2018-01-22T05:40:30.193Z,0.92
2018-01-22T05:41:30.105Z,0.88
2018-01-22T05:42:30.016Z,0.99
2018-01-22T05:43:29.928Z,0.86
2018-01-22T05:44:29.843Z,0.92
2018-01-22T05:45:29.755Z,0.94
2018-01-22T05:46:29.668Z,0.95
2018-01-22T05:47:29.580Z,0.88
2018-01-22T05:48:29.493Z,0.91
2018-01-22T05:49:29.407Z,0.81
2018-01-22T05:50:29.319Z,0.81
2018-01-22T05:51:29.230Z,0.92
2018-01-22T05:52:29.143Z,0.95
2018-01-22T05:53:29.102Z,0.98
2018-01-22T05:54:28.968Z,1.01
2018-01-22T05:55:28.880Z,0.99
2018-01-22T05:56:28.794Z,0.96
2018-01-22T05:57:28.705Z,0.98
2018-01-22T05:58:28.621Z,0.96
2018-01-22T05:59:28.530Z,0.98
2018-01-22T06:00:28.447Z,0.98
2018-01-22T06:01:28.357Z,0.99
2018-01-22T06:02:28.283Z,0.98
2018-01-22T06:03:28.183Z,0.99
2018-01-22T06:04:28.095Z,1.05
2018-01-22T06:05:28.007Z,1.04
2018-01-22T06:06:27.921Z,1.05
2018-01-22T06:07:27.833Z,1.08
2018-01-22T06:08:27.746Z,1.06
2018-01-22T06:09:27.657Z,1.08
2018-01-22T06:10:27.571Z,1.10
2018-01-22T06:11:27.483Z,1.06
2018-01-22T06:12:27.425Z,1.14
2018-01-22T06:13:27.310Z,1.08
2018-01-22T06:14:27.222Z,1.08
2018-01-22T06:15:27.138Z,1.17
2018-01-22T06:16:27.050Z,1.12
2018-01-22T06:17:26.960Z,1.12
2018-01-22T06:18:26.875Z,1.16
2018-01-22T06:19:26.789Z,1.12
2018-01-22T06:20:26.704Z,1.14
2018-01-22T06:21:26.619Z,1.16
2018-01-22T06:22:26.522Z,1.19
2018-01-22T06:23:26.439Z,1.26
2018-01-22T06:24:26.351Z,1.24
2018-01-22T06:25:26.264Z,1.28
2018-01-22T06:26:26.175Z,1.30
2018-01-22T06:27:26.101Z,1.26
2018-01-22T06:28:26.000Z,1.19
2018-01-22T06:29:25.912Z,1.26
2018-01-22T06:30:25.825Z,1.20
2018-01-22T06:31:25.742Z,1.24
2018-01-22T06:32:25.683Z,1.28
2018-01-22T06:33:25.564Z,1.23
2018-01-22T06:34:25.482Z,1.26
2018-01-22T06:35:25.395Z,1.28
2018-01-22T06:36:25.305Z,1.24
2018-01-22T06:37:25.217Z,1.26
2018-01-22T06:38:25.139Z,1.22
2018-01-22T06:39:25.045Z,1.26
2018-01-22T06:40:24.963Z,1.28
2018-01-22T06:41:24.868Z,1.35
2018-01-22T06:42:24.782Z,1.30
2018-01-22T06:43:24.697Z,1.30
2018-01-22T06:44:24.612Z,1.32
2018-01-22T06:45:24.520Z,1.38
2018-01-22T06:46:24.433Z,1.35
2018-01-22T06:47:24.347Z,1.35
2018-01-22T06:48:24.260Z,1.34
2018-01-22T06:49:24.170Z,1.38
2018-01-22T06:50:24.085Z,1.32
2018-01-22T06:51:24.006Z,1.40
2018-01-22T06:52:23.915Z,1.38
2018-01-22T06:53:23.822Z,1.41
2018-01-22T06:54:23.735Z,1.34
2018-01-22T06:55:23.649Z,1.40
2018-01-22T06:56:23.564Z,1.37
2018-01-22T06:57:23.478Z,1.37
2018-01-22T06:58:23.389Z,1.40
2018-01-22T06:59:23.304Z,1.37
2018-01-22T07:00:23.217Z,1.44
2018-01-22T07:01:23.128Z,1.37
2018-01-22T07:02:23.042Z,1.34
2018-01-22T07:03:22.953Z,1.35
2018-01-22T07:04:22.869Z,1.42
2018-01-22T07:05:22.779Z,1.48
2018-01-22T07:06:22.693Z,1.37
2018-01-22T07:07:22.607Z,1.52
2018-01-22T07:08:22.520Z,1.49
2018-01-22T07:09:22.432Z,1.45
2018-01-22T07:10:22.354Z,1.49
2018-01-22T07:11:22.259Z,1.45
2018-01-22T07:12:22.173Z,1.50
2018-01-22T07:13:22.087Z,1.45
2018-01-22T07:14:22.001Z,1.50
2018-01-22T07:15:21.910Z,1.48
2018-01-22T07:16:21.823Z,1.44
2018-01-22T07:17:21.742Z,1.45
2018-01-22T07:18:21.653Z,1.49
2018-01-22T07:19:21.568Z,1.50
2018-01-22T07:20:21.478Z,1.45
2018-01-22T07:21:21.393Z,1.49
2018-01-22T07:22:21.302Z,1.50
2018-01-22T07:23:21.214Z,1.53
2018-01-22T07:24:21.130Z,1.62
2018-01-22T07:25:21.062Z,1.53
2018-01-22T07:26:20.957Z,1.45
2018-01-22T07:27:20.867Z,1.59
2018-01-22T07:28:20.783Z,1.49
2018-01-22T07:29:20.707Z,1.44
2018-01-22T07:30:20.609Z,1.49
2018-01-22T07:31:20.519Z,1.41
2018-01-22T07:32:20.435Z,1.42
2018-01-22T07:33:20.356Z,1.38
2018-01-22T07:34:20.258Z,1.49
2018-01-22T07:35:20.181Z,1.42
2018-01-22T07:36:20.085Z,1.45
2018-01-22T07:37:20.002Z,1.49
2018-01-22T07:38:19.912Z,1.49
2018-01-22T07:39:19.825Z,1.37
2018-01-22T07:40:19.740Z,1.38
2018-01-22T07:41:19.650Z,1.40
2018-01-22T07:42:19.564Z,1.37
2018-01-22T07:43:19.476Z,1.40
2018-01-22T07:44:19.388Z,1.42
2018-01-22T07:45:19.302Z,1.50
2018-01-22T07:46:19.215Z,1.44
2018-01-22T07:47:19.152Z,1.37
2018-01-22T07:48:19.044Z,1.42
2018-01-22T07:49:18.955Z,1.44
2018-01-22T07:50:18.892Z,1.45
2018-01-22T07:51:18.782Z,1.40
2018-01-22T07:52:18.743Z,1.44
2018-01-22T07:53:18.624Z,1.44
2018-01-22T07:54:18.525Z,1.44
2018-01-22T07:55:18.433Z,1.40
2018-01-22T07:56:18.346Z,1.45
2018-01-22T07:57:18.258Z,1.50
2018-01-22T07:58:18.172Z,1.42
2018-01-22T07:59:18.108Z,1.44
2018-01-22T08:00:17.998Z,1.45
2018-01-22T08:01:17.955Z,1.42
2018-01-22T08:02:17.824Z,1.44
2018-01-22T08:03:17.738Z,1.41
2018-01-22T08:04:17.673Z,1.41
2018-01-22T08:05:17.564Z,1.40
2018-01-22T08:06:17.475Z,1.40
2018-01-22T08:07:17.392Z,1.44
2018-01-22T08:08:17.301Z,1.32
2018-01-22T08:09:17.214Z,1.35
2018-01-22T08:10:17.130Z,1.50
2018-01-22T08:11:17.412Z,1.40
2018-01-22T08:12:16.956Z,1.42
2018-01-22T08:13:16.866Z,1.53
2018-01-22T08:14:16.791Z,1.49
2018-01-22T08:15:16.699Z,1.50
2018-01-22T08:16:16.606Z,1.50
2018-01-22T08:17:16.521Z,1.53
2018-01-22T08:18:16.431Z,1.45
2018-01-22T08:19:16.344Z,1.56
2018-01-22T08:20:16.260Z,1.49
2018-01-22T08:21:16.171Z,1.52
2018-01-22T08:22:16.091Z,1.52
2018-01-22T08:23:16.018Z,1.53
2018-01-22T08:24:15.919Z,1.49
2018-01-22T08:25:15.823Z,1.52
2018-01-22T08:26:15.738Z,1.58
2018-01-22T08:27:15.649Z,1.58
2018-01-22T08:28:15.567Z,1.50
2018-01-22T08:29:15.480Z,1.60
2018-01-22T08:30:15.390Z,1.59
2018-01-22T08:31:15.310Z,1.62
2018-01-22T08:32:15.216Z,1.59
2018-01-22T08:33:15.141Z,1.60
2018-01-22T08:34:15.042Z,1.56
2018-01-22T08:35:14.955Z,1.56
2018-01-22T08:36:14.869Z,1.63
2018-01-22T08:37:14.784Z,1.66
2018-01-22T08:38:14.700Z,1.68
2018-01-22T08:39:14.612Z,1.67
2018-01-22T08:40:14.533Z,1.60
2018-01-22T08:41:14.457Z,1.70
2018-01-22T08:42:14.349Z,1.63
2018-01-22T08:43:14.271Z,1.68
2018-01-22T08:44:14.178Z,1.66
2018-01-22T08:45:14.091Z,1.66
2018-01-22T08:46:14.003Z,1.60
2018-01-22T08:47:13.922Z,1.53
2018-01-22T08:48:13.854Z,1.48
2018-01-22T08:49:13.743Z,1.53
2018-01-22T08:50:13.661Z,1.56
2018-01-22T08:51:13.580Z,1.55
2018-01-22T08:52:13.484Z,1.50
2018-01-22T08:53:13.394Z,1.58
2018-01-22T08:54:13.309Z,1.55
2018-01-22T08:55:13.224Z,1.52
2018-01-22T08:56:13.137Z,1.59
2018-01-22T08:57:13.048Z,1.52
2018-01-22T08:58:12.970Z,1.58
2018-01-22T08:59:12.878Z,1.53
2018-01-22T09:00:12.792Z,1.60
2018-01-22T09:01:12.714Z,1.55
2018-01-22T09:02:12.617Z,1.60
2018-01-22T09:03:12.530Z,1.59
2018-01-22T09:04:12.445Z,1.60
2018-01-22T09:05:12.354Z,1.60
2018-01-22T09:06:12.269Z,1.60
2018-01-22T09:07:12.186Z,1.60
2018-01-22T09:08:12.113Z,1.60
2018-01-22T09:09:12.021Z,1.66
2018-01-22T09:10:11.929Z,1.60
2018-01-22T09:11:11.835Z,1.52
2018-01-22T09:12:11.760Z,1.53
2018-01-22T09:13:11.665Z,1.59
2018-01-22T09:14:11.605Z,1.55
2018-01-22T09:15:11.492Z,1.58
2018-01-22T09:16:11.406Z,1.60
2018-01-22T09:17:11.316Z,1.56
2018-01-22T09:18:11.231Z,1.58
2018-01-22T09:19:11.143Z,1.60
2018-01-22T09:20:11.055Z,1.67
2018-01-22T09:21:10.970Z,1.67
2018-01-22T09:22:10.884Z,1.67
2018-01-22T09:23:10.831Z,1.70
2018-01-22T09:24:10.710Z,1.62
2018-01-22T09:25:10.624Z,1.71
2018-01-22T09:26:10.547Z,1.74
2018-01-22T09:27:10.452Z,1.73
2018-01-22T09:28:10.365Z,1.67
2018-01-22T09:29:10.277Z,1.67
2018-01-22T09:30:10.190Z,1.70
2018-01-22T09:31:10.134Z,1.68
2018-01-22T09:32:10.017Z,1.70
2018-01-22T09:33:09.929Z,1.70
2018-01-22T09:34:09.844Z,1.74
2018-01-22T09:35:09.759Z,1.73
2018-01-22T09:36:09.671Z,1.70
2018-01-22T09:37:09.584Z,1.71
2018-01-22T09:38:09.498Z,1.73
2018-01-22T09:39:09.420Z,1.66
2018-01-22T09:40:09.329Z,1.67
2018-01-22T09:41:09.241Z,1.77
2018-01-22T09:42:09.150Z,1.71
2018-01-22T09:43:09.066Z,1.77
2018-01-22T09:44:08.979Z,1.68
2018-01-22T09:45:08.890Z,1.74
2018-01-22T09:46:08.806Z,1.59
2018-01-22T09:47:08.731Z,1.60
2018-01-22T09:48:08.652Z,1.68
2018-01-22T09:49:08.548Z,1.66
2018-01-22T09:50:08.461Z,1.59
2018-01-22T09:51:08.374Z,1.56
2018-01-22T09:52:08.286Z,1.53
2018-01-22T09:53:08.199Z,1.58
2018-01-22T09:54:08.119Z,1.60
2018-01-22T09:55:08.040Z,1.62
2018-01-22T09:56:07.939Z,1.56
2018-01-22T09:57:07.851Z,1.62
2018-01-22T09:58:07.768Z,1.63
2018-01-22T09:59:07.680Z,1.67
2018-01-22T10:00:07.596Z,1.60
2018-01-22T10:01:07.518Z,1.67
2018-01-22T10:02:07.423Z,1.59
2018-01-22T10:03:07.334Z,1.68
2018-01-22T10:04:07.247Z,1.59
2018-01-22T10:05:07.161Z,1.63
2018-01-22T10:06:07.073Z,1.59
2018-01-22T10:07:06.989Z,1.59
2018-01-22T10:08:06.903Z,1.60
2018-01-22T10:09:06.835Z,1.60
2018-01-22T10:10:06.729Z,1.67
2018-01-22T10:11:06.648Z,1.60
2018-01-22T10:12:06.557Z,1.63
2018-01-22T10:13:06.465Z,1.71
2018-01-22T10:14:06.385Z,1.60
2018-01-22T10:15:06.294Z,1.71
2018-01-22T10:16:06.209Z,1.62
2018-01-22T10:17:06.124Z,1.62
2018-01-22T10:18:06.038Z,1.68
2018-01-22T10:19:05.950Z,1.60
2018-01-22T10:20:05.861Z,1.60
2018-01-22T10:21:05.776Z,1.70
2018-01-22T10:22:05.690Z,1.71
2018-01-22T10:23:05.603Z,1.67
2018-01-22T10:24:05.518Z,1.66
2018-01-22T10:25:05.431Z,1.60
2018-01-22T10:26:05.345Z,1.59
2018-01-22T10:27:05.270Z,1.63
2018-01-22T10:28:05.169Z,1.67
2018-01-22T10:29:05.091Z,1.66
2018-01-22T10:30:04.997Z,1.68
2018-01-22T10:31:04.910Z,1.70
2018-01-22T10:32:04.825Z,1.70
2018-01-22T10:33:04.743Z,1.67
2018-01-22T10:34:04.669Z,1.67
2018-01-22T10:35:04.565Z,1.66
2018-01-22T10:36:04.479Z,1.78
2018-01-22T10:37:04.389Z,1.78
2018-01-22T10:38:04.303Z,1.73
2018-01-22T10:39:04.217Z,1.70
2018-01-22T10:40:04.136Z,1.70
2018-01-22T10:41:04.043Z,1.59
2018-01-22T10:42:03.959Z,1.68
2018-01-22T10:43:03.869Z,1.66
2018-01-22T10:44:03.784Z,1.60
2018-01-22T10:45:03.699Z,1.60
2018-01-22T10:46:03.611Z,1.73
2018-01-22T10:47:03.532Z,1.63
2018-01-22T10:48:03.437Z,1.70
2018-01-22T10:49:03.378Z,1.77
2018-01-22T10:50:03.263Z,1.77
2018-01-22T10:51:03.178Z,1.67
2018-01-22T10:52:03.091Z,1.73
2018-01-22T10:53:03.022Z,1.66
2018-01-22T10:54:02.920Z,1.63
2018-01-22T10:55:02.835Z,1.60
2018-01-22T10:56:02.745Z,1.60
2018-01-22T10:57:02.680Z,1.70
2018-01-22T10:58:02.577Z,1.70
2018-01-22T10:59:02.485Z,1.67
2018-01-22T11:00:02.401Z,1.73
2018-01-22T11:01:02.315Z,1.63
2018-01-22T11:02:02.227Z,1.70
2018-01-22T11:03:02.142Z,1.68
2018-01-22T11:04:02.054Z,1.70
2018-01-22T11:05:01.980Z,1.63
2018-01-22T11:06:01.899Z,1.71
2018-01-22T11:07:01.793Z,1.68
2018-01-22T11:08:01.709Z,1.71
2018-01-22T11:09:01.621Z,1.68
2018-01-22T11:10:01.532Z,1.68
2018-01-22T11:11:01.446Z,1.66
2018-01-22T11:12:01.361Z,1.76
2018-01-22T11:13:01.275Z,1.73
2018-01-22T11:14:01.189Z,1.77
2018-01-22T11:15:01.116Z,1.67
2018-01-22T11:16:01.015Z,1.68
2018-01-22T11:17:00.930Z,1.76
2018-01-22T11:18:00.846Z,1.78
2018-01-22T11:19:00.769Z,1.81
2018-01-22T11:20:00.671Z,1.77
2018-01-22T11:21:00.589Z,1.68
2018-01-22T11:22:00.494Z,1.70
2018-01-22T11:23:00.407Z,1.73
2018-01-22T11:24:00.324Z,1.73
2018-01-22T11:25:00.236Z,1.71
2018-01-22T11:26:00.148Z,1.77
2018-01-22T11:27:00.063Z,1.68
2018-01-22T11:27:59.975Z,1.80
2018-01-22T11:28:59.887Z,1.77
2018-01-22T11:29:59.802Z,1.71
2018-01-22T11:30:59.716Z,1.74
2018-01-22T11:31:59.645Z,1.77
2018-01-22T11:32:59.540Z,1.78
2018-01-22T11:33:59.455Z,1.76
2018-01-22T11:34:59.368Z,1.74
2018-01-22T11:35:59.284Z,1.77
2018-01-22T11:36:59.196Z,1.76
2018-01-22T11:37:59.117Z,1.80
2018-01-22T11:38:59.025Z,1.74
2018-01-22T11:39:58.937Z,1.76
2018-01-22T11:40:58.851Z,1.76
2018-01-22T11:41:58.763Z,1.71
2018-01-22T11:42:58.697Z,1.70
2018-01-22T11:43:58.597Z,1.68
2018-01-22T11:44:58.508Z,1.63
2018-01-22T11:45:58.466Z,1.66
2018-01-22T11:46:58.331Z,1.70
2018-01-22T11:47:58.249Z,1.68
2018-01-22T11:48:58.171Z,1.67
2018-01-22T11:49:58.085Z,1.66
2018-01-22T11:50:57.988Z,1.68
2018-01-22T11:51:57.901Z,1.70
2018-01-22T11:52:57.823Z,1.70
2018-01-22T11:53:57.740Z,1.73
2018-01-22T11:54:57.649Z,1.73
2018-01-22T11:55:57.582Z,1.73
2018-01-22T11:56:57.464Z,1.77
2018-01-22T11:57:57.404Z,1.76
2018-01-22T11:58:57.293Z,1.77
2018-01-22T11:59:57.204Z,1.80
2018-01-22T12:00:57.118Z,1.78
2018-01-22T12:01:57.032Z,1.66
2018-01-22T12:02:56.944Z,1.74
2018-01-22T12:03:56.868Z,1.80
2018-01-22T12:04:56.781Z,1.77
2018-01-22T12:05:56.686Z,1.74
2018-01-22T12:06:56.601Z,1.77
2018-01-22T12:07:56.514Z,1.80
2018-01-22T12:08:56.425Z,1.76
2018-01-22T12:09:56.341Z,1.80
2018-01-22T12:10:56.252Z,1.76
2018-01-22T12:11:56.164Z,1.85
2018-01-22T12:12:56.080Z,1.85
2018-01-22T12:13:55.992Z,1.85
2018-01-22T12:14:55.909Z,1.89
2018-01-22T12:15:55.818Z,1.88
2018-01-22T12:16:55.730Z,1.89
2018-01-22T12:17:55.645Z,1.89
2018-01-22T12:18:55.561Z,1.88
2018-01-22T12:19:55.474Z,2.00
2018-01-22T12:20:55.393Z,1.99
2018-01-22T12:21:55.299Z,1.95
2018-01-22T12:22:55.211Z,1.88
2018-01-22T12:23:55.128Z,1.77
2018-01-22T12:24:55.041Z,1.76
2018-01-22T12:25:54.957Z,1.74
2018-01-22T12:26:54.867Z,1.81
2018-01-22T12:27:54.800Z,1.81
2018-01-22T12:28:54.699Z,1.74
2018-01-22T12:29:54.620Z,1.71
2018-01-22T12:30:54.521Z,1.80
2018-01-22T12:31:54.436Z,1.77
2018-01-22T12:32:54.351Z,1.66
2018-01-22T12:33:54.262Z,1.74
2018-01-22T12:34:54.227Z,1.70
2018-01-22T12:35:54.115Z,1.71
2018-01-22T12:36:54.006Z,1.58
2018-01-22T12:37:53.916Z,1.59
2018-01-22T12:38:53.829Z,1.67
2018-01-22T12:39:53.747Z,1.62
2018-01-22T12:40:53.654Z,1.67
2018-01-22T12:41:53.569Z,1.67
2018-01-22T12:42:53.483Z,1.63
2018-01-22T12:43:53.396Z,1.63
2018-01-22T12:44:53.307Z,1.58
2018-01-22T12:45:53.224Z,1.67
2018-01-22T12:46:53.135Z,1.63
2018-01-22T12:47:53.049Z,1.76
2018-01-22T12:48:52.962Z,1.71
2018-01-22T12:49:52.875Z,1.66
2018-01-22T12:50:52.787Z,1.76
2018-01-22T12:51:52.701Z,1.76
2018-01-22T12:52:52.615Z,1.78
2018-01-22T12:53:52.530Z,1.87
2018-01-22T12:54:52.443Z,1.87
2018-01-22T12:55:52.356Z,1.85
2018-01-22T12:56:52.269Z,1.89
2018-01-22T12:57:52.181Z,1.91
2018-01-22T12:58:52.113Z,1.88
2018-01-22T12:59:52.008Z,1.85
2018-01-22T13:00:51.921Z,1.85
2018-01-22T13:01:51.836Z,1.85
2018-01-22T13:02:51.749Z,1.92
2018-01-22T13:03:51.664Z,1.95
2018-01-22T13:04:51.577Z,1.92
2018-01-22T13:05:51.489Z,1.89
2018-01-22T13:06:51.408Z,1.88
2018-01-22T13:07:51.322Z,2.04
2018-01-22T13:08:51.232Z,1.97
2018-01-22T13:09:51.141Z,1.95
2018-01-22T13:10:51.059Z,1.95
2018-01-22T13:11:50.970Z,1.95
2018-01-22T13:12:50.884Z,1.99
2018-01-22T13:13:50.796Z,1.91
2018-01-22T13:14:50.710Z,1.92
2018-01-22T13:15:50.626Z,1.95
2018-01-22T13:16:50.539Z,1.99
2018-01-22T13:17:50.451Z,1.95